sensor_id;sensor_type;location;lat;lon;timestamp;P1;durP1;ratioP1;P2;durP2;ratioP2
40595;SDS011;26304;48.794;9.820;2024-01-27T00:01:13;0.60;;;0.50;;
40595;SDS011;26304;48.794;9.820;2024-01-27T00:03:35;0.90;;;0.50;;
40595;SDS011;26304;48.794;9.820;2024-01-27T00:05:58;0.63;;;0.60;;
40595;SDS011;26304;48.794;9.820;2024-01-27T00:08:22;0.60;;;0.60;;
40595;SDS011;26304;48.794;9.820;2024-01-27T00:10:45;0.60;;;0.60;;
40595;SDS011;26304;48.794;9.820;2024-01-27T00:13:07;0.65;;;0.65;;
40595;SDS011;26304;48.794;9.820;2024-01-27T00:15:30;0.52;;;0.52;;
40595;SDS011;26304;48.794;9.820;2024-01-27T00:17:53;0.65;;;0.65;;
40595;SDS011;26304;48.794;9.820;2024-01-27T00:20:15;0.70;;;0.70;;
40595;SDS011;26304;48.794;9.820;2024-01-27T00:22:38;1.02;;;0.60;;
40595;SDS011;26304;48.794;9.820;2024-01-27T00:25:02;1.08;;;0.75;;
40595;SDS011;26304;48.794;9.820;2024-01-27T00:27:25;1.13;;;0.60;;
40595;SDS011;26304;48.794;9.820;2024-01-27T00:29:47;0.75;;;0.70;;
40595;SDS011;26304;48.794;9.820;2024-01-27T00:32:10;0.63;;;0.63;;
40595;SDS011;26304;48.794;9.820;2024-01-27T00:34:32;0.60;;;0.60;;
40595;SDS011;26304;48.794;9.820;2024-01-27T00:36:55;0.88;;;0.73;;
40595;SDS011;26304;48.794;9.820;2024-01-27T00:39:18;0.55;;;0.55;;
40595;SDS011;26304;48.794;9.820;2024-01-27T00:41:41;0.47;;;0.47;;
40595;SDS011;26304;48.794;9.820;2024-01-27T00:44:04;0.68;;;0.60;;
40595;SDS011;26304;48.794;9.820;2024-01-27T00:46:27;0.60;;;0.40;;
40595;SDS011;26304;48.794;9.820;2024-01-27T00:48:49;0.70;;;0.60;;
40595;SDS011;26304;48.794;9.820;2024-01-27T00:51:12;0.70;;;0.70;;
40595;SDS011;26304;48.794;9.820;2024-01-27T00:53:35;0.63;;;0.63;;
40595;SDS011;26304;48.794;9.820;2024-01-27T00:55:57;0.50;;;0.50;;
40595;SDS011;26304;48.794;9.820;2024-01-27T00:58:21;0.60;;;0.60;;
40595;SDS011;26304;48.794;9.820;2024-01-27T01:00:44;0.60;;;0.60;;
40595;SDS011;26304;48.794;9.820;2024-01-27T01:03:06;0.80;;;0.60;;
40595;SDS011;26304;48.794;9.820;2024-01-27T01:05:29;0.68;;;0.68;;
40595;SDS011;26304;48.794;9.820;2024-01-27T01:07:51;0.30;;;0.30;;
40595;SDS011;26304;48.794;9.820;2024-01-27T01:10:14;0.60;;;0.60;;
40595;SDS011;26304;48.794;9.820;2024-01-27T01:12:36;0.85;;;0.55;;
40595;SDS011;26304;48.794;9.820;2024-01-27T01:15:00;0.55;;;0.50;;
40595;SDS011;26304;48.794;9.820;2024-01-27T01:17:23;0.50;;;0.50;;
40595;SDS011;26304;48.794;9.820;2024-01-27T01:19:45;0.60;;;0.50;;
40595;SDS011;26304;48.794;9.820;2024-01-27T01:22:08;0.70;;;0.57;;
40595;SDS011;26304;48.794;9.820;2024-01-27T01:24:30;0.63;;;0.52;;
40595;SDS011;26304;48.794;9.820;2024-01-27T01:26:53;0.60;;;0.60;;
40595;SDS011;26304;48.794;9.820;2024-01-27T01:29:16;0.50;;;0.50;;
40595;SDS011;26304;48.794;9.820;2024-01-27T01:31:42;0.50;;;0.50;;
40595;SDS011;26304;48.794;9.820;2024-01-27T01:34:04;0.60;;;0.60;;
40595;SDS011;26304;48.794;9.820;2024-01-27T01:36:27;0.95;;;0.63;;
40595;SDS011;26304;48.794;9.820;2024-01-27T01:38:50;0.63;;;0.63;;
40595;SDS011;26304;48.794;9.820;2024-01-27T01:41:12;0.63;;;0.52;;
40595;SDS011;26304;48.794;9.820;2024-01-27T01:43:35;0.82;;;0.65;;
40595;SDS011;26304;48.794;9.820;2024-01-27T01:45:57;0.60;;;0.60;;
40595;SDS011;26304;48.794;9.820;2024-01-27T01:48:21;0.45;;;0.45;;
40595;SDS011;26304;48.794;9.820;2024-01-27T01:50:44;0.77;;;0.77;;
40595;SDS011;26304;48.794;9.820;2024-01-27T01:53:07;0.60;;;0.60;;
40595;SDS011;26304;48.794;9.820;2024-01-27T01:55:30;1.08;;;0.70;;
40595;SDS011;26304;48.794;9.820;2024-01-27T01:57:53;0.85;;;0.60;;
40595;SDS011;26304;48.794;9.820;2024-01-27T02:00:16;0.60;;;0.60;;
40595;SDS011;26304;48.794;9.820;2024-01-27T02:02:39;0.60;;;0.60;;
40595;SDS011;26304;48.794;9.820;2024-01-27T02:05:03;0.50;;;0.50;;
40595;SDS011;26304;48.794;9.820;2024-01-27T02:07:26;0.50;;;0.50;;
40595;SDS011;26304;48.794;9.820;2024-01-27T02:09:48;0.70;;;0.70;;
40595;SDS011;26304;48.794;9.820;2024-01-27T02:12:11;0.60;;;0.60;;
40595;SDS011;26304;48.794;9.820;2024-01-27T02:14:34;0.60;;;0.50;;
40595;SDS011;26304;48.794;9.820;2024-01-27T02:16:56;0.60;;;0.60;;
40595;SDS011;26304;48.794;9.820;2024-01-27T02:19:19;0.68;;;0.60;;
40595;SDS011;26304;48.794;9.820;2024-01-27T02:21:43;0.50;;;0.50;;
40595;SDS011;26304;48.794;9.820;2024-01-27T02:24:08;0.50;;;0.50;;
40595;SDS011;26304;48.794;9.820;2024-01-27T02:26:31;0.60;;;0.60;;
40595;SDS011;26304;48.794;9.820;2024-01-27T02:28:53;0.90;;;0.50;;
40595;SDS011;26304;48.794;9.820;2024-01-27T02:31:16;0.50;;;0.50;;
40595;SDS011;26304;48.794;9.820;2024-01-27T02:33:38;0.43;;;0.43;;
40595;SDS011;26304;48.794;9.820;2024-01-27T02:36:01;0.50;;;0.50;;
40595;SDS011;26304;48.794;9.820;2024-01-27T02:38:23;0.68;;;0.68;;
40595;SDS011;26304;48.794;9.820;2024-01-27T02:40:47;0.40;;;0.40;;
40595;SDS011;26304;48.794;9.820;2024-01-27T02:43:10;0.50;;;0.50;;
40595;SDS011;26304;48.794;9.820;2024-01-27T02:45:32;0.43;;;0.43;;
40595;SDS011;26304;48.794;9.820;2024-01-27T02:47:55;0.52;;;0.50;;
40595;SDS011;26304;48.794;9.820;2024-01-27T02:50:17;0.70;;;0.60;;
40595;SDS011;26304;48.794;9.820;2024-01-27T02:52:40;0.52;;;0.50;;
40595;SDS011;26304;48.794;9.820;2024-01-27T02:55:03;0.50;;;0.50;;
40595;SDS011;26304;48.794;9.820;2024-01-27T02:57:27;0.50;;;0.50;;
40595;SDS011;26304;48.794;9.820;2024-01-27T02:59:50;0.82;;;0.60;;
40595;SDS011;26304;48.794;9.820;2024-01-27T03:02:12;0.60;;;0.60;;
40595;SDS011;26304;48.794;9.820;2024-01-27T03:04:35;0.60;;;0.50;;
40595;SDS011;26304;48.794;9.820;2024-01-27T03:06:57;1.75;;;0.73;;
40595;SDS011;26304;48.794;9.820;2024-01-27T03:09:20;0.50;;;0.50;;
40595;SDS011;26304;48.794;9.820;2024-01-27T03:11:43;0.70;;;0.70;;
40595;SDS011;26304;48.794;9.820;2024-01-27T03:14:07;0.52;;;0.52;;
40595;SDS011;26304;48.794;9.820;2024-01-27T03:16:29;0.60;;;0.60;;
40595;SDS011;26304;48.794;9.820;2024-01-27T03:18:51;0.43;;;0.43;;
40595;SDS011;26304;48.794;9.820;2024-01-27T03:21:13;0.60;;;0.50;;
40595;SDS011;26304;48.794;9.820;2024-01-27T03:23:36;0.40;;;0.40;;
40595;SDS011;26304;48.794;9.820;2024-01-27T03:25:58;0.50;;;0.50;;
40595;SDS011;26304;48.794;9.820;2024-01-27T03:28:21;0.50;;;0.40;;
40595;SDS011;26304;48.794;9.820;2024-01-27T03:30:44;0.45;;;0.45;;
40595;SDS011;26304;48.794;9.820;2024-01-27T03:33:07;0.60;;;0.40;;
40595;SDS011;26304;48.794;9.820;2024-01-27T03:35:31;0.55;;;0.55;;
40595;SDS011;26304;48.794;9.820;2024-01-27T03:37:54;0.52;;;0.52;;
40595;SDS011;26304;48.794;9.820;2024-01-27T03:40:16;0.57;;;0.57;;
40595;SDS011;26304;48.794;9.820;2024-01-27T03:42:39;0.50;;;0.50;;
40595;SDS011;26304;48.794;9.820;2024-01-27T03:45:02;0.60;;;0.60;;
40595;SDS011;26304;48.794;9.820;2024-01-27T03:47:26;0.60;;;0.60;;
40595;SDS011;26304;48.794;9.820;2024-01-27T03:49:48;0.70;;;0.70;;
40595;SDS011;26304;48.794;9.820;2024-01-27T03:52:10;1.08;;;0.50;;
40595;SDS011;26304;48.794;9.820;2024-01-27T03:54:32;0.55;;;0.55;;
40595;SDS011;26304;48.794;9.820;2024-01-27T03:56:55;0.68;;;0.65;;
40595;SDS011;26304;48.794;9.820;2024-01-27T03:59:17;0.60;;;0.60;;
40595;SDS011;26304;48.794;9.820;2024-01-27T04:01:40;0.50;;;0.50;;
40595;SDS011;26304;48.794;9.820;2024-01-27T04:04:04;0.50;;;0.50;;
40595;SDS011;26304;48.794;9.820;2024-01-27T04:06:27;0.52;;;0.52;;
40595;SDS011;26304;48.794;9.820;2024-01-27T04:08:49;0.40;;;0.40;;
40595;SDS011;26304;48.794;9.820;2024-01-27T04:11:18;0.45;;;0.45;;
40595;SDS011;26304;48.794;9.820;2024-01-27T04:13:42;0.70;;;0.55;;
40595;SDS011;26304;48.794;9.820;2024-01-27T04:16:05;0.50;;;0.50;;
40595;SDS011;26304;48.794;9.820;2024-01-27T04:18:28;1.17;;;0.70;;
40595;SDS011;26304;48.794;9.820;2024-01-27T04:20:52;0.50;;;0.50;;
40595;SDS011;26304;48.794;9.820;2024-01-27T04:23:14;0.52;;;0.52;;
40595;SDS011;26304;48.794;9.820;2024-01-27T04:25:37;0.70;;;0.70;;
40595;SDS011;26304;48.794;9.820;2024-01-27T04:28:00;0.60;;;0.60;;
40595;SDS011;26304;48.794;9.820;2024-01-27T04:30:22;0.57;;;0.50;;
40595;SDS011;26304;48.794;9.820;2024-01-27T04:32:45;0.40;;;0.40;;
40595;SDS011;26304;48.794;9.820;2024-01-27T04:35:10;0.75;;;0.50;;
40595;SDS011;26304;48.794;9.820;2024-01-27T04:37:34;0.63;;;0.40;;
40595;SDS011;26304;48.794;9.820;2024-01-27T04:39:57;1.08;;;0.63;;
40595;SDS011;26304;48.794;9.820;2024-01-27T04:42:19;0.50;;;0.50;;
40595;SDS011;26304;48.794;9.820;2024-01-27T04:44:42;1.40;;;0.50;;
40595;SDS011;26304;48.794;9.820;2024-01-27T04:47:05;0.68;;;0.50;;
40595;SDS011;26304;48.794;9.820;2024-01-27T04:49:28;0.50;;;0.50;;
40595;SDS011;26304;48.794;9.820;2024-01-27T04:51:50;1.38;;;0.60;;
40595;SDS011;26304;48.794;9.820;2024-01-27T04:54:14;0.85;;;0.50;;
40595;SDS011;26304;48.794;9.820;2024-01-27T04:56:37;0.90;;;0.57;;
40595;SDS011;26304;48.794;9.820;2024-01-27T04:58:58;0.50;;;0.50;;
40595;SDS011;26304;48.794;9.820;2024-01-27T05:01:21;0.60;;;0.60;;
40595;SDS011;26304;48.794;9.820;2024-01-27T05:03:43;0.45;;;0.40;;
40595;SDS011;26304;48.794;9.820;2024-01-27T05:06:07;2.92;;;0.70;;
40595;SDS011;26304;48.794;9.820;2024-01-27T05:08:30;1.00;;;0.73;;
40595;SDS011;26304;48.794;9.820;2024-01-27T05:10:54;1.15;;;0.50;;
40595;SDS011;26304;48.794;9.820;2024-01-27T05:13:16;2.08;;;0.75;;
40595;SDS011;26304;48.794;9.820;2024-01-27T05:15:39;0.80;;;0.70;;
40595;SDS011;26304;48.794;9.820;2024-01-27T05:18:01;0.50;;;0.50;;
40595;SDS011;26304;48.794;9.820;2024-01-27T05:20:24;0.90;;;0.80;;
40595;SDS011;26304;48.794;9.820;2024-01-27T05:22:47;0.73;;;0.52;;
40595;SDS011;26304;48.794;9.820;2024-01-27T05:25:09;2.25;;;0.60;;
40595;SDS011;26304;48.794;9.820;2024-01-27T05:27:34;0.55;;;0.52;;
40595;SDS011;26304;48.794;9.820;2024-01-27T05:29:56;2.05;;;0.60;;
40595;SDS011;26304;48.794;9.820;2024-01-27T05:32:19;0.40;;;0.40;;
40595;SDS011;26304;48.794;9.820;2024-01-27T05:34:42;1.77;;;0.50;;
40595;SDS011;26304;48.794;9.820;2024-01-27T05:37:04;6.90;;;0.73;;
40595;SDS011;26304;48.794;9.820;2024-01-27T05:39:27;3.30;;;0.68;;
40595;SDS011;26304;48.794;9.820;2024-01-27T05:41:50;0.65;;;0.60;;
40595;SDS011;26304;48.794;9.820;2024-01-27T05:44:14;1.70;;;0.82;;
40595;SDS011;26304;48.794;9.820;2024-01-27T05:46:36;2.47;;;0.65;;
40595;SDS011;26304;48.794;9.820;2024-01-27T05:48:59;1.67;;;0.70;;
40595;SDS011;26304;48.794;9.820;2024-01-27T05:51:24;0.65;;;0.40;;
40595;SDS011;26304;48.794;9.820;2024-01-27T05:53:47;1.13;;;0.52;;
40595;SDS011;26304;48.794;9.820;2024-01-27T05:56:09;0.73;;;0.50;;
40595;SDS011;26304;48.794;9.820;2024-01-27T05:58:32;1.25;;;0.55;;
40595;SDS011;26304;48.794;9.820;2024-01-27T06:00:56;0.52;;;0.52;;
40595;SDS011;26304;48.794;9.820;2024-01-27T06:03:18;0.77;;;0.57;;
40595;SDS011;26304;48.794;9.820;2024-01-27T06:05:41;0.65;;;0.50;;
40595;SDS011;26304;48.794;9.820;2024-01-27T06:08:04;0.73;;;0.50;;
40595;SDS011;26304;48.794;9.820;2024-01-27T06:10:28;0.65;;;0.47;;
40595;SDS011;26304;48.794;9.820;2024-01-27T06:12:51;0.50;;;0.50;;
40595;SDS011;26304;48.794;9.820;2024-01-27T06:15:14;0.93;;;0.40;;
40595;SDS011;26304;48.794;9.820;2024-01-27T06:17:38;0.50;;;0.50;;
40595;SDS011;26304;48.794;9.820;2024-01-27T06:20:01;2.05;;;0.70;;
40595;SDS011;26304;48.794;9.820;2024-01-27T06:22:24;1.52;;;0.82;;
40595;SDS011;26304;48.794;9.820;2024-01-27T06:24:47;0.50;;;0.47;;
40595;SDS011;26304;48.794;9.820;2024-01-27T06:27:10;0.80;;;0.63;;
40595;SDS011;26304;48.794;9.820;2024-01-27T06:29:32;0.60;;;0.50;;
40595;SDS011;26304;48.794;9.820;2024-01-27T06:31:55;3.30;;;0.70;;
40595;SDS011;26304;48.794;9.820;2024-01-27T06:34:18;0.90;;;0.60;;
40595;SDS011;26304;48.794;9.820;2024-01-27T06:36:41;1.77;;;0.80;;
40595;SDS011;26304;48.794;9.820;2024-01-27T06:39:04;3.92;;;0.80;;
40595;SDS011;26304;48.794;9.820;2024-01-27T06:41:26;2.33;;;0.98;;
40595;SDS011;26304;48.794;9.820;2024-01-27T06:43:49;2.22;;;0.80;;
40595;SDS011;26304;48.794;9.820;2024-01-27T06:46:11;2.33;;;0.75;;
40595;SDS011;26304;48.794;9.820;2024-01-27T06:48:34;0.90;;;0.52;;
40595;SDS011;26304;48.794;9.820;2024-01-27T06:50:58;1.25;;;0.65;;
40595;SDS011;26304;48.794;9.820;2024-01-27T06:53:20;0.50;;;0.50;;
40595;SDS011;26304;48.794;9.820;2024-01-27T06:55:43;0.93;;;0.65;;
40595;SDS011;26304;48.794;9.820;2024-01-27T06:58:05;0.95;;;0.65;;
40595;SDS011;26304;48.794;9.820;2024-01-27T07:00:28;1.75;;;0.70;;
40595;SDS011;26304;48.794;9.820;2024-01-27T07:02:50;0.70;;;0.70;;
40595;SDS011;26304;48.794;9.820;2024-01-27T07:05:13;1.00;;;0.80;;
40595;SDS011;26304;48.794;9.820;2024-01-27T07:07:37;0.57;;;0.50;;
40595;SDS011;26304;48.794;9.820;2024-01-27T07:09:59;2.67;;;0.60;;
40595;SDS011;26304;48.794;9.820;2024-01-27T07:12:22;2.67;;;0.68;;
40595;SDS011;26304;48.794;9.820;2024-01-27T07:14:44;0.98;;;0.55;;
40595;SDS011;26304;48.794;9.820;2024-01-27T07:17:07;0.60;;;0.60;;
40595;SDS011;26304;48.794;9.820;2024-01-27T07:19:30;0.80;;;0.80;;
40595;SDS011;26304;48.794;9.820;2024-01-27T07:21:52;0.93;;;0.80;;
40595;SDS011;26304;48.794;9.820;2024-01-27T07:24:16;0.70;;;0.63;;
40595;SDS011;26304;48.794;9.820;2024-01-27T07:26:38;0.80;;;0.80;;
40595;SDS011;26304;48.794;9.820;2024-01-27T07:29:01;0.60;;;0.60;;
40595;SDS011;26304;48.794;9.820;2024-01-27T07:31:23;1.13;;;0.73;;
40595;SDS011;26304;48.794;9.820;2024-01-27T07:33:47;1.10;;;0.70;;
40595;SDS011;26304;48.794;9.820;2024-01-27T07:36:11;0.88;;;0.68;;
40595;SDS011;26304;48.794;9.820;2024-01-27T07:38:33;0.80;;;0.80;;
40595;SDS011;26304;48.794;9.820;2024-01-27T07:40:57;2.08;;;0.70;;
40595;SDS011;26304;48.794;9.820;2024-01-27T07:43:20;0.82;;;0.80;;
40595;SDS011;26304;48.794;9.820;2024-01-27T07:45:42;0.88;;;0.73;;
40595;SDS011;26304;48.794;9.820;2024-01-27T07:48:05;1.00;;;0.85;;
40595;SDS011;26304;48.794;9.820;2024-01-27T07:50:28;1.00;;;0.90;;
40595;SDS011;26304;48.794;9.820;2024-01-27T07:52:51;0.90;;;0.80;;
40595;SDS011;26304;48.794;9.820;2024-01-27T07:55:14;1.15;;;0.60;;
40595;SDS011;26304;48.794;9.820;2024-01-27T07:57:39;1.40;;;1.05;;
40595;SDS011;26304;48.794;9.820;2024-01-27T08:00:02;0.88;;;0.77;;
40595;SDS011;26304;48.794;9.820;2024-01-27T08:02:27;1.90;;;1.00;;
40595;SDS011;26304;48.794;9.820;2024-01-27T08:04:49;2.28;;;0.90;;
40595;SDS011;26304;48.794;9.820;2024-01-27T08:07:12;0.70;;;0.70;;
40595;SDS011;26304;48.794;9.820;2024-01-27T08:09:37;1.52;;;1.00;;
40595;SDS011;26304;48.794;9.820;2024-01-27T08:12:00;1.58;;;1.15;;
40595;SDS011;26304;48.794;9.820;2024-01-27T08:14:24;1.00;;;0.98;;
40595;SDS011;26304;48.794;9.820;2024-01-27T08:16:46;1.00;;;0.90;;
40595;SDS011;26304;48.794;9.820;2024-01-27T08:19:09;1.60;;;0.85;;
40595;SDS011;26304;48.794;9.820;2024-01-27T08:21:32;0.80;;;0.80;;
40595;SDS011;26304;48.794;9.820;2024-01-27T08:23:54;0.70;;;0.70;;
40595;SDS011;26304;48.794;9.820;2024-01-27T08:26:17;1.02;;;0.93;;
40595;SDS011;26304;48.794;9.820;2024-01-27T08:28:41;1.20;;;0.90;;
40595;SDS011;26304;48.794;9.820;2024-01-27T08:31:05;1.00;;;0.95;;
40595;SDS011;26304;48.794;9.820;2024-01-27T08:33:28;1.38;;;0.95;;
40595;SDS011;26304;48.794;9.820;2024-01-27T08:35:50;0.90;;;0.80;;
40595;SDS011;26304;48.794;9.820;2024-01-27T08:38:13;0.90;;;0.70;;
40595;SDS011;26304;48.794;9.820;2024-01-27T08:40:36;0.80;;;0.75;;
40595;SDS011;26304;48.794;9.820;2024-01-27T08:42:58;1.10;;;1.00;;
40595;SDS011;26304;48.794;9.820;2024-01-27T08:45:21;0.95;;;0.60;;
40595;SDS011;26304;48.794;9.820;2024-01-27T08:47:45;1.17;;;1.00;;
40595;SDS011;26304;48.794;9.820;2024-01-27T08:50:09;1.65;;;0.82;;
40595;SDS011;26304;48.794;9.820;2024-01-27T08:52:32;0.82;;;0.73;;
40595;SDS011;26304;48.794;9.820;2024-01-27T08:54:54;1.13;;;0.88;;
40595;SDS011;26304;48.794;9.820;2024-01-27T08:57:17;0.70;;;0.70;;
40595;SDS011;26304;48.794;9.820;2024-01-27T08:59:39;1.30;;;0.98;;
40595;SDS011;26304;48.794;9.820;2024-01-27T09:02:02;0.90;;;0.90;;
40595;SDS011;26304;48.794;9.820;2024-01-27T09:04:27;1.63;;;0.85;;
40595;SDS011;26304;48.794;9.820;2024-01-27T09:06:49;0.93;;;0.93;;
40595;SDS011;26304;48.794;9.820;2024-01-27T09:09:12;0.70;;;0.70;;
40595;SDS011;26304;48.794;9.820;2024-01-27T09:11:35;1.00;;;0.90;;
40595;SDS011;26304;48.794;9.820;2024-01-27T09:13:57;0.70;;;0.60;;
40595;SDS011;26304;48.794;9.820;2024-01-27T09:16:20;1.33;;;0.80;;
40595;SDS011;26304;48.794;9.820;2024-01-27T09:18:43;0.80;;;0.70;;
40595;SDS011;26304;48.794;9.820;2024-01-27T09:21:06;1.48;;;1.00;;
40595;SDS011;26304;48.794;9.820;2024-01-27T09:23:30;0.77;;;0.77;;
40595;SDS011;26304;48.794;9.820;2024-01-27T09:25:51;1.13;;;0.85;;
40595;SDS011;26304;48.794;9.820;2024-01-27T09:28:14;0.80;;;0.80;;
40595;SDS011;26304;48.794;9.820;2024-01-27T09:30:37;1.23;;;0.95;;
40595;SDS011;26304;48.794;9.820;2024-01-27T09:33:00;1.30;;;0.98;;
40595;SDS011;26304;48.794;9.820;2024-01-27T09:35:22;1.20;;;0.90;;
40595;SDS011;26304;48.794;9.820;2024-01-27T09:37:46;1.40;;;0.70;;
40595;SDS011;26304;48.794;9.820;2024-01-27T09:40:09;0.70;;;0.70;;
40595;SDS011;26304;48.794;9.820;2024-01-27T09:42:32;0.80;;;0.80;;
40595;SDS011;26304;48.794;9.820;2024-01-27T09:44:56;0.80;;;0.80;;
40595;SDS011;26304;48.794;9.820;2024-01-27T09:47:21;0.77;;;0.77;;
40595;SDS011;26304;48.794;9.820;2024-01-27T09:49:44;1.33;;;1.10;;
40595;SDS011;26304;48.794;9.820;2024-01-27T09:52:09;0.98;;;0.98;;
40595;SDS011;26304;48.794;9.820;2024-01-27T09:54:34;0.90;;;0.90;;
40595;SDS011;26304;48.794;9.820;2024-01-27T09:56:58;1.15;;;0.85;;
40595;SDS011;26304;48.794;9.820;2024-01-27T09:59:21;0.70;;;0.70;;
40595;SDS011;26304;48.794;9.820;2024-01-27T10:01:44;0.90;;;0.80;;
40595;SDS011;26304;48.794;9.820;2024-01-27T10:04:12;1.10;;;0.73;;
40595;SDS011;26304;48.794;9.820;2024-01-27T10:06:35;1.42;;;1.00;;
40595;SDS011;26304;48.794;9.820;2024-01-27T10:08:58;1.08;;;0.93;;
40595;SDS011;26304;48.794;9.820;2024-01-27T10:11:22;1.23;;;1.00;;
40595;SDS011;26304;48.794;9.820;2024-01-27T10:13:45;0.90;;;0.90;;
40595;SDS011;26304;48.794;9.820;2024-01-27T10:16:16;1.08;;;0.90;;
40595;SDS011;26304;48.794;9.820;2024-01-27T10:18:38;0.80;;;0.80;;
40595;SDS011;26304;48.794;9.820;2024-01-27T10:21:11;1.15;;;0.98;;
40595;SDS011;26304;48.794;9.820;2024-01-27T10:23:38;1.40;;;0.82;;
40595;SDS011;26304;48.794;9.820;2024-01-27T10:26:01;0.80;;;0.80;;
40595;SDS011;26304;48.794;9.820;2024-01-27T10:28:25;1.13;;;1.02;;
40595;SDS011;26304;48.794;9.820;2024-01-27T10:30:48;0.80;;;0.80;;
40595;SDS011;26304;48.794;9.820;2024-01-27T10:33:11;0.85;;;0.68;;
40595;SDS011;26304;48.794;9.820;2024-01-27T10:35:34;0.82;;;0.70;;
40595;SDS011;26304;48.794;9.820;2024-01-27T10:37:57;0.70;;;0.60;;
40595;SDS011;26304;48.794;9.820;2024-01-27T10:40:19;0.70;;;0.70;;
40595;SDS011;26304;48.794;9.820;2024-01-27T10:42:52;0.85;;;0.70;;
40595;SDS011;26304;48.794;9.820;2024-01-27T10:45:25;0.93;;;0.80;;
40595;SDS011;26304;48.794;9.820;2024-01-27T10:47:51;0.80;;;0.80;;
40595;SDS011;26304;48.794;9.820;2024-01-27T10:50:16;0.93;;;0.90;;
40595;SDS011;26304;48.794;9.820;2024-01-27T10:52:39;1.05;;;0.63;;
40595;SDS011;26304;48.794;9.820;2024-01-27T10:55:05;0.88;;;0.80;;
40595;SDS011;26304;48.794;9.820;2024-01-27T10:57:29;2.63;;;0.85;;
40595;SDS011;26304;48.794;9.820;2024-01-27T10:59:53;0.85;;;0.70;;
40595;SDS011;26304;48.794;9.820;2024-01-27T11:02:19;1.73;;;0.95;;
40595;SDS011;26304;48.794;9.820;2024-01-27T11:04:42;1.45;;;0.90;;
40595;SDS011;26304;48.794;9.820;2024-01-27T11:07:05;1.58;;;0.75;;
40595;SDS011;26304;48.794;9.820;2024-01-27T11:09:29;1.25;;;0.75;;
40595;SDS011;26304;48.794;9.820;2024-01-27T11:11:52;7.57;;;1.00;;
40595;SDS011;26304;48.794;9.820;2024-01-27T11:14:15;2.92;;;0.90;;
40595;SDS011;26304;48.794;9.820;2024-01-27T11:16:38;2.05;;;0.90;;
40595;SDS011;26304;48.794;9.820;2024-01-27T11:19:06;0.80;;;0.80;;
40595;SDS011;26304;48.794;9.820;2024-01-27T11:21:29;1.27;;;0.80;;
40595;SDS011;26304;48.794;9.820;2024-01-27T11:23:51;0.85;;;0.80;;
40595;SDS011;26304;48.794;9.820;2024-01-27T11:26:17;1.10;;;0.98;;
40595;SDS011;26304;48.794;9.820;2024-01-27T11:28:42;1.17;;;1.05;;
40595;SDS011;26304;48.794;9.820;2024-01-27T11:31:04;1.88;;;0.70;;
40595;SDS011;26304;48.794;9.820;2024-01-27T11:33:28;2.15;;;1.25;;
40595;SDS011;26304;48.794;9.820;2024-01-27T11:36:00;2.05;;;0.93;;
40595;SDS011;26304;48.794;9.820;2024-01-27T11:38:24;1.70;;;0.70;;
40595;SDS011;26304;48.794;9.820;2024-01-27T11:40:47;2.28;;;1.10;;
40595;SDS011;26304;48.794;9.820;2024-01-27T11:43:11;4.78;;;1.45;;
40595;SDS011;26304;48.794;9.820;2024-01-27T11:45:34;5.38;;;1.35;;
40595;SDS011;26304;48.794;9.820;2024-01-27T11:47:57;3.58;;;1.10;;
40595;SDS011;26304;48.794;9.820;2024-01-27T11:50:20;1.67;;;1.10;;
40595;SDS011;26304;48.794;9.820;2024-01-27T11:52:43;5.13;;;1.67;;
40595;SDS011;26304;48.794;9.820;2024-01-27T11:55:06;3.25;;;1.63;;
40595;SDS011;26304;48.794;9.820;2024-01-27T11:57:29;3.20;;;2.03;;
40595;SDS011;26304;48.794;9.820;2024-01-27T11:59:52;4.45;;;2.40;;
40595;SDS011;26304;48.794;9.820;2024-01-27T12:02:16;4.80;;;2.25;;
40595;SDS011;26304;48.794;9.820;2024-01-27T12:04:38;3.15;;;2.10;;
40595;SDS011;26304;48.794;9.820;2024-01-27T12:07:01;4.43;;;2.60;;
40595;SDS011;26304;48.794;9.820;2024-01-27T12:09:25;5.95;;;2.63;;
40595;SDS011;26304;48.794;9.820;2024-01-27T12:11:48;3.28;;;2.72;;
40595;SDS011;26304;48.794;9.820;2024-01-27T12:14:11;6.55;;;2.80;;
40595;SDS011;26304;48.794;9.820;2024-01-27T12:16:34;3.72;;;2.47;;
40595;SDS011;26304;48.794;9.820;2024-01-27T12:18:57;2.58;;;2.28;;
40595;SDS011;26304;48.794;9.820;2024-01-27T12:21:20;5.68;;;3.03;;
40595;SDS011;26304;48.794;9.820;2024-01-27T12:23:49;3.08;;;2.00;;
40595;SDS011;26304;48.794;9.820;2024-01-27T12:26:15;4.68;;;2.53;;
40595;SDS011;26304;48.794;9.820;2024-01-27T12:28:37;4.15;;;2.33;;
40595;SDS011;26304;48.794;9.820;2024-01-27T12:31:00;3.40;;;2.75;;
40595;SDS011;26304;48.794;9.820;2024-01-27T12:33:22;3.03;;;1.88;;
40595;SDS011;26304;48.794;9.820;2024-01-27T12:35:46;4.00;;;2.22;;
40595;SDS011;26304;48.794;9.820;2024-01-27T12:38:09;2.47;;;2.10;;
40595;SDS011;26304;48.794;9.820;2024-01-27T12:40:32;3.17;;;2.03;;
40595;SDS011;26304;48.794;9.820;2024-01-27T12:42:56;2.45;;;1.83;;
40595;SDS011;26304;48.794;9.820;2024-01-27T12:45:18;2.38;;;1.88;;
40595;SDS011;26304;48.794;9.820;2024-01-27T12:47:41;2.67;;;2.03;;
40595;SDS011;26304;48.794;9.820;2024-01-27T12:50:04;2.08;;;1.58;;
40595;SDS011;26304;48.794;9.820;2024-01-27T12:52:27;2.78;;;1.90;;
40595;SDS011;26304;48.794;9.820;2024-01-27T12:54:50;3.70;;;2.05;;
40595;SDS011;26304;48.794;9.820;2024-01-27T12:57:12;2.53;;;1.80;;
40595;SDS011;26304;48.794;9.820;2024-01-27T12:59:36;4.13;;;1.77;;
40595;SDS011;26304;48.794;9.820;2024-01-27T13:01:59;2.70;;;1.80;;
40595;SDS011;26304;48.794;9.820;2024-01-27T13:04:22;2.17;;;1.95;;
40595;SDS011;26304;48.794;9.820;2024-01-27T13:06:45;2.25;;;1.42;;
40595;SDS011;26304;48.794;9.820;2024-01-27T13:09:07;2.35;;;1.70;;
40595;SDS011;26304;48.794;9.820;2024-01-27T13:11:33;2.65;;;1.67;;
40595;SDS011;26304;48.794;9.820;2024-01-27T13:13:55;2.72;;;1.83;;
40595;SDS011;26304;48.794;9.820;2024-01-27T13:16:20;3.35;;;1.83;;
40595;SDS011;26304;48.794;9.820;2024-01-27T13:18:43;3.40;;;1.80;;
40595;SDS011;26304;48.794;9.820;2024-01-27T13:21:07;1.92;;;1.58;;
40595;SDS011;26304;48.794;9.820;2024-01-27T13:23:29;3.45;;;1.92;;
40595;SDS011;26304;48.794;9.820;2024-01-27T13:25:52;3.33;;;1.90;;
40595;SDS011;26304;48.794;9.820;2024-01-27T13:28:15;2.15;;;1.55;;
40595;SDS011;26304;48.794;9.820;2024-01-27T13:30:37;2.78;;;1.92;;
40595;SDS011;26304;48.794;9.820;2024-01-27T13:33:02;2.22;;;1.60;;
40595;SDS011;26304;48.794;9.820;2024-01-27T13:35:24;2.75;;;1.73;;
40595;SDS011;26304;48.794;9.820;2024-01-27T13:37:47;1.70;;;1.60;;
40595;SDS011;26304;48.794;9.820;2024-01-27T13:40:10;3.20;;;1.90;;
40595;SDS011;26304;48.794;9.820;2024-01-27T13:42:33;2.00;;;1.63;;
40595;SDS011;26304;48.794;9.820;2024-01-27T13:44:55;3.42;;;1.77;;
40595;SDS011;26304;48.794;9.820;2024-01-27T13:47:21;2.90;;;1.52;;
40595;SDS011;26304;48.794;9.820;2024-01-27T13:49:45;2.35;;;1.50;;
40595;SDS011;26304;48.794;9.820;2024-01-27T13:52:08;2.90;;;1.65;;
40595;SDS011;26304;48.794;9.820;2024-01-27T13:54:30;3.58;;;1.55;;
40595;SDS011;26304;48.794;9.820;2024-01-27T13:56:54;3.75;;;1.60;;
40595;SDS011;26304;48.794;9.820;2024-01-27T13:59:17;2.20;;;1.30;;
40595;SDS011;26304;48.794;9.820;2024-01-27T14:01:40;2.03;;;1.40;;
40595;SDS011;26304;48.794;9.820;2024-01-27T14:04:03;2.60;;;1.55;;
40595;SDS011;26304;48.794;9.820;2024-01-27T14:06:27;1.63;;;1.50;;
40595;SDS011;26304;48.794;9.820;2024-01-27T14:08:50;2.85;;;1.55;;
40595;SDS011;26304;48.794;9.820;2024-01-27T14:11:12;1.40;;;1.23;;
40595;SDS011;26304;48.794;9.820;2024-01-27T14:13:36;1.98;;;1.35;;
40595;SDS011;26304;48.794;9.820;2024-01-27T14:15:58;3.75;;;1.48;;
40595;SDS011;26304;48.794;9.820;2024-01-27T14:18:21;1.90;;;1.10;;
40595;SDS011;26304;48.794;9.820;2024-01-27T14:20:43;3.15;;;1.30;;
40595;SDS011;26304;48.794;9.820;2024-01-27T14:23:07;2.63;;;1.48;;